createdAt,value
2023-04-30T00:02:33.412Z,100086.69
2023-04-30T00:05:46.138Z,100090.78
2023-04-30T00:08:58.512Z,100085.69
2023-04-30T00:12:11.142Z,100089.97
2023-04-30T00:15:23.516Z,100088.94
2023-04-30T00:18:36.167Z,100088.37
2023-04-30T00:21:48.708Z,100086.44
2023-04-30T00:25:01.662Z,100079.03
2023-04-30T00:28:14.026Z,100081.25
2023-04-30T00:31:26.730Z,100078.78
2023-04-30T00:34:39.071Z,100083.00
2023-04-30T00:37:51.686Z,100076.78
2023-04-30T00:41:04.493Z,100085.69
2023-04-30T00:44:17.142Z,100079.47
2023-04-30T00:47:29.584Z,100079.78
2023-04-30T00:50:42.815Z,100075.38
2023-04-30T00:53:55.199Z,100079.03
2023-04-30T00:57:07.973Z,100087.47
2023-04-30T01:00:20.367Z,100087.50
2023-04-30T01:03:33.117Z,100082.66
2023-04-30T01:06:46.721Z,100075.63
2023-04-30T01:09:59.394Z,100088.69
2023-04-30T01:13:29.301Z,100082.88
2023-04-30T01:16:51.487Z,100083.28
2023-04-30T01:20:04.239Z,100088.06
2023-04-30T01:23:46.969Z,100084.94
2023-04-30T01:27:18.067Z,100091.75
2023-04-30T01:30:31.967Z,100090.91
2023-04-30T01:33:44.407Z,100090.91
2023-04-30T01:37:20.723Z,100094.31
2023-04-30T01:40:57.868Z,100083.06
2023-04-30T01:44:22.690Z,100082.94
2023-04-30T01:47:54.461Z,100078.97
2023-04-30T01:51:31.295Z,100083.59
2023-04-30T01:54:53.094Z,100084.66
2023-04-30T01:58:06.974Z,100084.50
2023-04-30T02:01:32.593Z,100080.66
2023-04-30T02:04:45.589Z,100083.06
2023-04-30T02:07:59.309Z,100080.91
2023-04-30T02:11:12.007Z,100076.66
2023-04-30T02:14:24.422Z,100078.44
2023-04-30T02:17:38.255Z,100077.47
2023-04-30T02:20:51.560Z,100078.66
2023-04-30T02:24:04.372Z,100082.28
2023-04-30T02:27:17.013Z,100078.69
2023-04-30T02:30:29.714Z,100082.31
2023-04-30T02:33:42.077Z,100077.31
2023-04-30T02:36:54.749Z,100077.91
2023-04-30T02:40:08.091Z,100081.72
2023-04-30T02:43:20.767Z,100087.72
2023-04-30T02:46:33.158Z,100093.16
2023-04-30T02:49:45.907Z,100086.28
2023-04-30T02:53:00.503Z,100080.69
2023-04-30T02:56:13.117Z,100086.53
2023-04-30T02:59:25.592Z,100083.91
2023-04-30T03:02:40.398Z,100097.53
2023-04-30T03:05:52.898Z,100094.75
2023-04-30T03:09:05.670Z,100089.34
2023-04-30T03:12:17.985Z,100095.97
2023-04-30T03:15:32.976Z,100100.59
2023-04-30T03:18:48.941Z,100097.38
2023-04-30T03:22:01.606Z,100106.22
2023-04-30T03:25:14.004Z,100106.00
2023-04-30T03:28:26.673Z,100105.37
2023-04-30T03:31:39.095Z,100112.41
2023-04-30T03:34:51.807Z,100113.16
2023-04-30T03:38:04.258Z,100123.59
2023-04-30T03:41:16.886Z,100115.75
2023-04-30T03:44:29.250Z,100115.16
2023-04-30T03:47:43.798Z,100114.13
2023-04-30T03:50:56.158Z,100109.47
2023-04-30T03:54:08.934Z,100113.12
2023-04-30T03:57:21.630Z,100109.28
2023-04-30T04:00:34.386Z,100107.31
2023-04-30T04:03:47.043Z,100102.34
2023-04-30T04:06:59.783Z,100110.75
2023-04-30T04:10:12.469Z,100110.78
2023-04-30T04:13:24.847Z,100109.56
2023-04-30T04:16:37.567Z,100128.03
2023-04-30T04:19:49.978Z,100124.41
2023-04-30T04:23:03.060Z,100134.06
2023-04-30T04:26:16.568Z,100139.69
2023-04-30T04:29:29.873Z,100135.81
2023-04-30T04:32:46.659Z,100141.25
2023-04-30T04:35:59.539Z,100135.28
2023-04-30T04:39:12.178Z,100143.09
2023-04-30T04:42:24.809Z,100145.78
2023-04-30T04:45:37.874Z,100152.00
2023-04-30T04:48:50.583Z,100158.44
2023-04-30T04:52:03.847Z,100163.88
2023-04-30T04:55:16.934Z,100167.47
2023-04-30T04:58:29.701Z,100162.66
2023-04-30T05:01:42.469Z,100169.84
2023-04-30T05:04:55.494Z,100170.19
2023-04-30T05:08:08.522Z,100173.81
2023-04-30T05:11:22.175Z,100174.97
2023-04-30T05:14:37.466Z,100178.16
2023-04-30T05:17:49.861Z,100182.56
2023-04-30T05:21:02.572Z,100188.56
2023-04-30T05:24:14.949Z,100187.41
2023-04-30T05:27:27.665Z,100180.59
2023-04-30T05:30:40.107Z,100179.00
2023-04-30T05:33:52.756Z,100186.63
2023-04-30T05:37:05.073Z,100186.78
2023-04-30T05:40:17.815Z,100190.94
2023-04-30T05:43:30.190Z,100198.84
2023-04-30T05:46:42.790Z,100197.41
2023-04-30T05:49:55.522Z,100200.19
2023-04-30T05:53:08.752Z,100203.53
2023-04-30T05:56:21.530Z,100208.75
2023-04-30T05:59:34.154Z,100203.28
2023-04-30T06:02:46.624Z,100209.50
2023-04-30T06:05:59.305Z,100218.53
2023-04-30T06:09:11.700Z,100217.75
2023-04-30T06:12:24.469Z,100223.56
2023-04-30T06:15:36.882Z,100218.94
2023-04-30T06:18:51.215Z,100219.94
2023-04-30T06:22:04.952Z,100219.09
2023-04-30T06:25:17.559Z,100215.12
2023-04-30T06:28:29.968Z,100217.13
2023-04-30T06:31:42.716Z,100212.50
2023-04-30T06:34:55.734Z,100202.97
2023-04-30T06:38:08.421Z,100210.28
2023-04-30T06:41:21.032Z,100210.44
2023-04-30T06:44:33.669Z,100211.34
2023-04-30T06:47:47.245Z,100213.06
2023-04-30T06:50:59.908Z,100215.59
2023-04-30T06:54:12.312Z,100211.09
2023-04-30T06:57:25.793Z,100208.47
2023-04-30T07:00:38.212Z,100208.94
2023-04-30T07:03:52.716Z,100208.28
2023-04-30T07:07:05.210Z,100208.78
2023-04-30T07:10:18.453Z,100203.19
2023-04-30T07:13:30.794Z,100208.44
2023-04-30T07:16:43.952Z,100206.91
2023-04-30T07:19:56.493Z,100208.25
2023-04-30T07:23:09.323Z,100203.44
2023-04-30T07:26:21.975Z,100204.22
2023-04-30T07:29:35.488Z,100200.66
2023-04-30T07:32:48.153Z,100210.44
2023-04-30T07:36:00.834Z,100213.53
2023-04-30T07:39:13.924Z,100212.56
2023-04-30T07:42:26.615Z,100214.91
2023-04-30T07:45:38.942Z,100211.19
2023-04-30T07:48:51.602Z,100212.06
2023-04-30T07:52:04.102Z,100218.72
2023-04-30T07:55:16.768Z,100215.28
2023-04-30T07:58:29.187Z,100210.91
2023-04-30T08:01:41.907Z,100217.25
2023-04-30T08:04:54.564Z,100217.88
2023-04-30T08:08:06.930Z,100218.66
2023-04-30T08:11:19.543Z,100218.28
2023-04-30T08:14:32.896Z,100209.53
2023-04-30T08:17:45.565Z,100218.84
2023-04-30T08:20:58.009Z,100218.50
2023-04-30T08:24:10.806Z,100212.31
2023-04-30T08:27:23.508Z,100213.03
2023-04-30T08:30:36.268Z,100213.59
2023-04-30T08:33:48.613Z,100222.53
2023-04-30T08:37:01.634Z,100217.09
2023-04-30T08:40:14.879Z,100208.84
2023-04-30T08:43:27.872Z,100206.41
2023-04-30T08:46:40.289Z,100211.97
2023-04-30T08:49:53.195Z,100210.37
2023-04-30T08:53:05.692Z,100213.69
2023-04-30T08:56:18.286Z,100212.88
2023-04-30T08:59:30.907Z,100221.22
2023-04-30T09:02:43.651Z,100212.59
2023-04-30T09:05:56.336Z,100210.37
2023-04-30T09:09:11.553Z,100214.50
2023-04-30T09:12:23.929Z,100213.97
2023-04-30T09:15:38.046Z,100212.91
2023-04-30T09:18:50.570Z,100221.75
2023-04-30T09:22:24.628Z,100214.97
2023-04-30T09:25:43.542Z,100209.66
2023-04-30T09:28:57.565Z,100194.84
2023-04-30T09:32:10.149Z,100209.56
2023-04-30T09:35:46.758Z,100190.28
2023-04-30T09:39:11.461Z,100202.59
2023-04-30T09:42:25.316Z,100194.00
2023-04-30T09:45:51.577Z,100200.59
2023-04-30T09:49:05.620Z,100196.87
2023-04-30T09:52:18.458Z,100195.69
2023-04-30T09:55:31.080Z,100192.22
2023-04-30T09:58:44.179Z,100192.47
2023-04-30T10:01:59.022Z,100183.50
2023-04-30T10:05:11.658Z,100189.28
2023-04-30T10:08:28.459Z,100187.19
2023-04-30T10:11:42.336Z,100175.69
2023-04-30T10:15:18.836Z,100183.63
2023-04-30T10:18:35.411Z,100174.72
2023-04-30T10:21:48.316Z,100177.28
2023-04-30T10:25:01.378Z,100179.78
2023-04-30T10:28:14.142Z,100173.59
2023-04-30T10:31:27.206Z,100174.28
2023-04-30T10:35:11.216Z,100162.84
2023-04-30T10:38:27.898Z,100167.53
2023-04-30T10:41:40.469Z,100174.03
2023-04-30T10:44:53.743Z,100163.44
2023-04-30T10:48:06.892Z,100166.47
2023-04-30T10:51:20.038Z,100164.69
2023-04-30T10:54:36.130Z,100162.09
2023-04-30T10:57:51.575Z,100160.19
2023-04-30T11:01:12.098Z,100158.63
2023-04-30T11:04:25.338Z,100161.09
2023-04-30T11:07:38.410Z,100153.72
2023-04-30T11:10:58.757Z,100159.25
2023-04-30T11:14:11.796Z,100146.69
2023-04-30T11:17:24.656Z,100154.59
2023-04-30T11:20:41.789Z,100151.41
2023-04-30T11:23:54.698Z,100163.84
2023-04-30T11:27:07.064Z,100173.78
2023-04-30T11:30:20.597Z,100165.44
2023-04-30T11:33:33.496Z,100168.50
2023-04-30T11:36:46.922Z,100161.66
2023-04-30T11:40:01.354Z,100160.97
2023-04-30T11:43:23.964Z,100163.44
2023-04-30T11:46:36.381Z,100170.81
2023-04-30T11:49:51.037Z,100167.78
2023-04-30T11:53:05.459Z,100164.47
2023-04-30T11:56:22.384Z,100162.19
2023-04-30T11:59:41.409Z,100162.87
2023-04-30T12:02:54.168Z,100158.13
2023-04-30T12:06:07.030Z,100154.50
2023-04-30T12:09:19.434Z,100165.28
2023-04-30T12:12:32.324Z,100157.78
2023-04-30T12:15:57.693Z,100150.34
2023-04-30T12:19:10.332Z,100149.00
2023-04-30T12:22:22.761Z,100146.78
2023-04-30T12:25:43.184Z,100155.09
2023-04-30T12:28:56.011Z,100143.34
2023-04-30T12:32:08.776Z,100145.47
2023-04-30T12:35:22.931Z,100142.37
2023-04-30T12:38:35.599Z,100141.72
2023-04-30T12:41:49.256Z,100137.09
2023-04-30T12:45:01.962Z,100153.22
2023-04-30T12:48:14.889Z,100147.78
2023-04-30T12:51:28.012Z,100148.94
2023-04-30T12:54:40.436Z,100151.72
2023-04-30T12:58:13.325Z,100143.56
2023-04-30T13:01:25.964Z,100143.72
2023-04-30T13:04:39.195Z,100140.12
2023-04-30T13:07:55.796Z,100138.25
2023-04-30T13:11:10.363Z,100129.59
2023-04-30T13:14:23.847Z,100121.66
2023-04-30T13:17:36.720Z,100110.03
2023-04-30T13:20:49.089Z,100116.94
2023-04-30T13:24:01.868Z,100123.03
2023-04-30T13:27:14.221Z,100115.06
2023-04-30T13:30:26.902Z,100114.87
2023-04-30T13:33:39.282Z,100112.72
2023-04-30T13:36:53.553Z,100126.47
2023-04-30T13:40:08.075Z,100118.63
2023-04-30T13:43:20.782Z,100115.63
2023-04-30T13:46:33.155Z,100121.53
2023-04-30T13:49:45.815Z,100136.97
2023-04-30T13:52:59.451Z,100134.19
2023-04-30T13:56:12.781Z,100141.72
2023-04-30T13:59:25.380Z,100139.19
2023-04-30T14:02:38.251Z,100138.16
2023-04-30T14:05:51.207Z,100148.44
2023-04-30T14:09:03.587Z,100140.50
2023-04-30T14:12:16.397Z,100138.53
2023-04-30T14:15:30.717Z,100146.38
2023-04-30T14:18:43.937Z,100146.78
2023-04-30T14:21:56.415Z,100144.84
2023-04-30T14:25:09.652Z,100151.09
2023-04-30T14:28:22.085Z,100139.63
2023-04-30T14:31:34.737Z,100150.22
2023-04-30T14:34:47.348Z,100156.94
2023-04-30T14:37:59.984Z,100150.91
2023-04-30T14:41:12.832Z,100156.72
2023-04-30T14:44:26.581Z,100157.03
2023-04-30T14:47:39.021Z,100163.91
2023-04-30T14:50:52.347Z,100161.78
2023-04-30T14:54:04.674Z,100152.87
2023-04-30T14:57:17.615Z,100158.31
2023-04-30T15:00:31.082Z,100159.91
2023-04-30T15:03:44.017Z,100155.53
2023-04-30T15:06:56.420Z,100169.31
2023-04-30T15:10:09.642Z,100159.59
2023-04-30T15:13:21.973Z,100166.31
2023-04-30T15:16:35.137Z,100170.00
2023-04-30T15:19:47.478Z,100163.44
2023-04-30T15:23:00.119Z,100167.50
2023-04-30T15:26:12.653Z,100174.22
2023-04-30T15:29:25.274Z,100186.69
2023-04-30T15:32:37.713Z,100176.34
2023-04-30T15:35:50.389Z,100188.97
2023-04-30T15:39:02.758Z,100189.37
2023-04-30T15:42:15.366Z,100199.31
2023-04-30T15:45:29.478Z,100194.44
2023-04-30T15:48:42.108Z,100199.13
2023-04-30T15:51:54.500Z,100200.88
2023-04-30T15:55:08.208Z,100201.31
2023-04-30T15:58:20.675Z,100204.97
2023-04-30T16:01:33.425Z,100212.25
2023-04-30T16:04:46.192Z,100202.56
2023-04-30T16:07:58.544Z,100199.28
2023-04-30T16:11:11.754Z,100203.16
2023-04-30T16:14:24.231Z,100195.16
2023-04-30T16:17:36.949Z,100194.13
2023-04-30T16:20:49.760Z,100196.78
2023-04-30T16:24:02.379Z,100198.88
2023-04-30T16:27:14.780Z,100192.41
2023-04-30T16:30:27.393Z,100190.56
2023-04-30T16:33:39.784Z,100192.47
2023-04-30T16:36:52.409Z,100190.88
2023-04-30T16:40:06.498Z,100189.94
2023-04-30T16:43:19.224Z,100199.13
2023-04-30T16:46:31.993Z,100205.34
2023-04-30T16:49:44.708Z,100201.94
2023-04-30T16:52:57.202Z,100204.38
2023-04-30T16:56:09.867Z,100204.34
2023-04-30T16:59:24.639Z,100200.59
2023-04-30T17:02:38.579Z,100203.34
2023-04-30T17:05:52.186Z,100201.75
2023-04-30T17:09:05.223Z,100207.19
2023-04-30T17:12:17.582Z,100212.16
2023-04-30T17:15:30.356Z,100219.19
2023-04-30T17:18:42.689Z,100225.12
2023-04-30T17:21:55.334Z,100242.31
2023-04-30T17:25:08.156Z,100250.06
2023-04-30T17:28:20.773Z,100247.97
2023-04-30T17:31:33.241Z,100249.72
2023-04-30T17:34:46.268Z,100251.81
2023-04-30T17:37:59.460Z,100249.53
2023-04-30T17:41:12.619Z,100252.50
2023-04-30T17:44:24.948Z,100256.81
2023-04-30T17:47:37.874Z,100262.03
2023-04-30T17:50:50.526Z,100260.31
2023-04-30T17:54:03.387Z,100274.84
2023-04-30T17:57:15.720Z,100267.44
2023-04-30T18:00:28.350Z,100274.41
2023-04-30T18:03:42.669Z,100275.59
2023-04-30T18:06:55.183Z,100283.81
2023-04-30T18:10:08.612Z,100286.34
2023-04-30T18:13:21.505Z,100281.63
2023-04-30T18:16:34.306Z,100293.41
2023-04-30T18:19:48.755Z,100296.84
2023-04-30T18:23:01.442Z,100296.06
2023-04-30T18:26:13.761Z,100294.47
2023-04-30T18:29:26.487Z,100300.06
2023-04-30T18:32:38.920Z,100303.94
2023-04-30T18:35:52.398Z,100315.44
2023-04-30T18:39:05.643Z,100315.06
2023-04-30T18:42:18.297Z,100320.12
2023-04-30T18:45:30.692Z,100329.84
2023-04-30T18:48:43.469Z,100329.84
2023-04-30T18:51:56.558Z,100337.34
2023-04-30T18:55:11.662Z,100334.22
2023-04-30T18:58:24.031Z,100355.50
2023-04-30T19:01:36.703Z,100351.84
2023-04-30T19:04:50.418Z,100350.69
2023-04-30T19:08:03.646Z,100345.66
2023-04-30T19:11:16.468Z,100348.81
2023-04-30T19:14:29.434Z,100357.25
2023-04-30T19:17:42.293Z,100357.72
2023-04-30T19:21:00.149Z,100360.91
2023-04-30T19:24:12.558Z,100367.72
2023-04-30T19:27:25.211Z,100371.00
2023-04-30T19:30:37.706Z,100379.06
2023-04-30T19:33:50.544Z,100379.28
2023-04-30T19:37:03.153Z,100375.91
2023-04-30T19:40:15.956Z,100381.38
2023-04-30T19:43:28.336Z,100385.91
2023-04-30T19:46:42.414Z,100375.87
2023-04-30T19:49:55.223Z,100387.38
2023-04-30T19:53:08.045Z,100381.75
2023-04-30T19:56:20.861Z,100388.22
2023-04-30T19:59:33.505Z,100387.03
2023-04-30T20:02:47.653Z,100390.69
2023-04-30T20:06:01.639Z,100402.84
2023-04-30T20:09:15.128Z,100393.19
2023-04-30T20:12:28.360Z,100398.94
2023-04-30T20:15:40.804Z,100395.69
2023-04-30T20:18:53.630Z,100404.62
2023-04-30T20:22:13.020Z,100401.00
2023-04-30T20:25:26.024Z,100404.28
2023-04-30T20:28:38.584Z,100410.69
2023-04-30T20:31:52.022Z,100403.88
2023-04-30T20:35:04.933Z,100410.16
2023-04-30T20:38:19.839Z,100415.59
2023-04-30T20:41:32.502Z,100418.38
2023-04-30T20:44:46.360Z,100420.44
2023-04-30T20:47:58.998Z,100421.66
2023-04-30T20:51:11.681Z,100423.25
2023-04-30T20:54:24.109Z,100428.31
2023-04-30T20:57:37.027Z,100432.16
2023-04-30T21:00:50.091Z,100443.00
2023-04-30T21:04:02.730Z,100439.16
2023-04-30T21:07:15.126Z,100438.97
2023-04-30T21:10:28.698Z,100440.22
2023-04-30T21:13:41.827Z,100446.66
2023-04-30T21:16:54.548Z,100447.06
2023-04-30T21:20:07.583Z,100453.91
2023-04-30T21:23:20.220Z,100451.88
2023-04-30T21:26:32.857Z,100457.91
2023-04-30T21:29:45.650Z,100458.09
2023-04-30T21:32:58.976Z,100461.50
2023-04-30T21:36:12.281Z,100467.53
2023-04-30T21:39:24.613Z,100472.13
2023-04-30T21:42:37.342Z,100473.56
2023-04-30T21:45:49.881Z,100473.09
2023-04-30T21:49:02.756Z,100475.94
2023-04-30T21:52:15.133Z,100479.94
2023-04-30T21:55:27.878Z,100480.31
2023-04-30T21:58:40.338Z,100490.69
2023-04-30T22:01:53.285Z,100493.53
2023-04-30T22:05:06.525Z,100497.09
2023-04-30T22:08:18.869Z,100503.50
2023-04-30T22:11:31.807Z,100506.16
2023-04-30T22:14:45.449Z,100508.94
2023-04-30T22:17:58.792Z,100508.28
2023-04-30T22:21:11.180Z,100507.91
2023-04-30T22:24:23.854Z,100507.13
2023-04-30T22:27:36.201Z,100507.53
2023-04-30T22:30:48.848Z,100509.94
2023-04-30T22:34:01.203Z,100505.37
2023-04-30T22:37:13.813Z,100505.03
2023-04-30T22:40:26.218Z,100503.81
2023-04-30T22:43:38.839Z,100507.16
2023-04-30T22:46:51.221Z,100511.19
2023-04-30T22:50:04.183Z,100506.91
2023-04-30T22:53:16.973Z,100498.47
2023-04-30T22:56:29.902Z,100507.69
2023-04-30T22:59:42.276Z,100506.13
2023-04-30T23:02:55.077Z,100509.66
2023-04-30T23:06:07.526Z,100504.22
2023-04-30T23:09:20.587Z,100501.19
2023-04-30T23:12:32.934Z,100501.25
2023-04-30T23:15:45.585Z,100509.06
2023-04-30T23:18:58.344Z,100497.19
2023-04-30T23:22:11.120Z,100506.81
2023-04-30T23:25:23.498Z,100503.56
2023-04-30T23:28:37.994Z,100506.13
2023-04-30T23:31:51.066Z,100510.72
2023-04-30T23:35:03.922Z,100515.13
2023-04-30T23:38:19.244Z,100514.75
2023-04-30T23:41:31.880Z,100516.38
2023-04-30T23:44:44.227Z,100513.28
2023-04-30T23:47:57.018Z,100514.16
2023-04-30T23:51:09.541Z,100513.00
2023-04-30T23:54:22.441Z,100517.00
2023-04-30T23:57:34.810Z,100518.22
